Time;durP1;ratioP1;P1;durP2;ratioP2;P2;SDS_P1;SDS_P2;PMS_P1;PMS_P2;Temp;Humidity;BMP_temperature;BMP_pressure;BME280_temperature;BME280_humidity;BME280_pressure;Samples;Min_cycle;Max_cycle;Signal;HPM_P1;HPM_P2
2022/08/08 00:00:11;;;;;;;2.25;1.30;;;;;;;31.87;33.25;99268.66;4883248;29;20495;-86
2022/08/08 00:02:56;;;;;;;1.90;1.05;;;;;;;31.84;32.71;99266.31;4885515;29;20029;-85
2022/08/08 00:05:29;;;;;;;2.00;1.23;;;;;;;31.85;32.90;99272.53;4886409;29;20124;-86
2022/08/08 00:08:07;;;;;;;1.70;1.13;;;;;;;31.83;32.96;99272.69;4887298;29;20099;-85
2022/08/08 00:10:45;;;;;;;2.50;1.50;;;;;;;31.82;32.73;99275.56;4884557;29;20032;-85
2022/08/08 00:13:21;;;;;;;2.75;1.73;;;;;;;31.81;32.82;99281.97;4882716;29;20028;-85
2022/08/08 00:15:59;;;;;;;2.42;1.60;;;;;;;31.79;33.31;99276.72;4882595;29;20028;-84
2022/08/08 00:19:08;;;;;;;2.30;1.50;;;;;;;31.79;32.97;99287.53;4883019;29;20464;-86
2022/08/08 00:21:44;;;;;;;2.10;1.50;;;;;;;31.79;33.16;99276.72;4883360;29;20119;-86
2022/08/08 00:24:19;;;;;;;3.67;1.60;;;;;;;31.77;32.80;99294.97;4886626;29;20120;-85
2022/08/08 00:26:55;;;;;;;2.20;1.60;;;;;;;31.75;32.88;99292.41;4903066;29;20064;-86
2022/08/08 00:29:23;;;;;;;2.22;1.45;;;;;;;31.75;32.81;99291.56;4888911;29;20068;-88
2022/08/08 00:31:53;;;;;;;2.30;1.45;;;;;;;31.74;32.58;99295.28;4886461;29;20487;-86
2022/08/08 00:37:29;;;;;;;2.63;1.60;;;;;;;31.72;32.66;99286.53;4902799;29;20055;-86
2022/08/08 00:40:26;;;;;;;2.92;1.80;;;;;;;31.70;32.45;99288.53;4889908;29;20138;-86
2022/08/08 00:43:13;;;;;;;2.83;1.70;;;;;;;31.68;32.56;99279.78;4878753;29;20048;-86
2022/08/08 00:46:33;;;;;;;3.15;1.75;;;;;;;31.68;32.51;99279.78;4902634;29;20040;-86
2022/08/08 00:49:58;;;;;;;2.80;1.77;;;;;;;31.66;32.93;99266.44;4886103;29;20120;-84
2022/08/08 00:52:39;;;;;;;2.38;1.60;;;;;;;31.65;32.98;99269.34;4860608;29;20135;-84
2022/08/08 00:55:42;;;;;;;2.72;1.60;;;;;;;31.63;32.48;99271.34;4886210;29;20063;-87
2022/08/08 00:58:36;;;;;;;3.55;1.90;;;;;;;31.64;32.78;99270.31;4885594;29;20462;-85
2022/08/08 01:01:13;;;;;;;2.78;1.58;;;;;;;31.61;33.17;99269.66;4883307;29;20040;-86
2022/08/08 01:03:57;;;;;;;4.38;2.03;;;;;;;31.61;32.65;99275.06;4889805;29;20028;-84
2022/08/08 01:06:42;;;;;;;2.35;1.55;;;;;;;31.59;32.76;99274.41;4888276;29;20028;-84
2022/08/08 01:09:22;;;;;;;2.85;1.70;;;;;;;31.59;33.00;99282.47;4888461;29;20427;-85
2022/08/08 01:12:12;;;;;;;4.10;2.00;;;;;;;31.58;32.80;99280.78;4885695;29;20056;-84
2022/08/08 01:14:56;;;;;;;2.40;1.60;;;;;;;31.57;32.88;99284.47;4876743;29;20099;-84
2022/08/08 01:18:05;;;;;;;3.53;1.88;;;;;;;31.57;32.77;99289.88;4887567;29;20029;-84
2022/08/08 01:20:50;;;;;;;3.20;1.60;;;;;;;31.55;32.97;99291.06;4887665;29;20107;-88
2022/08/08 01:23:48;;;;;;;2.75;1.77;;;;;;;31.56;32.60;99304.38;4888089;29;20036;-86
2022/08/08 01:26:47;;;;;;;2.55;1.70;;;;;;;31.55;32.89;99297.31;4886376;29;20060;-86
2022/08/08 01:29:34;;;;;;;2.95;1.65;;;;;;;31.55;32.83;99297.31;4885567;29;20096;-86
2022/08/08 01:32:08;;;;;;;2.47;1.67;;;;;;;31.54;33.07;99295.63;4902019;29;20463;-84
2022/08/08 01:34:52;;;;;;;2.58;1.60;;;;;;;31.53;32.92;99293.94;4883878;29;20033;-85
2022/08/08 01:37:39;;;;;;;2.55;1.50;;;;;;;31.52;32.71;99292.22;4884786;29;20489;-87
2022/08/08 01:40:32;;;;;;;2.15;1.52;;;;;;;31.50;32.67;99288.88;4901836;29;20028;-87
2022/08/08 01:43:35;;;;;;;2.55;1.65;;;;;;;31.50;32.92;99283.47;4884912;29;20052;-85
2022/08/08 01:46:38;;;;;;;2.38;1.58;;;;;;;31.50;32.80;99288.00;4885197;29;20029;-87
2022/08/08 01:49:13;;;;;;;2.40;1.40;;;;;;;31.47;32.90;99295.44;4884872;29;20044;-88
2022/08/08 01:51:57;;;;;;;2.13;1.40;;;;;;;31.46;32.81;99287.50;4902367;29;20028;-87
2022/08/08 01:54:44;;;;;;;1.65;1.17;;;;;;;31.46;32.87;99282.97;4887487;29;20025;-86
2022/08/08 01:57:58;;;;;;;2.72;1.52;;;;;;;31.45;32.80;99281.28;4885431;29;20032;-86
2022/08/08 02:00:40;;;;;;;2.40;1.48;;;;;;;31.44;32.81;99276.06;4876723;29;20485;-85
2022/08/08 02:03:33;;;;;;;2.67;1.50;;;;;;;31.42;33.05;99278.09;4884656;29;20042;-86
2022/08/08 02:06:17;;;;;;;2.88;1.60;;;;;;;31.41;32.88;99279.06;4902449;29;20031;-86
2022/08/08 02:09:00;;;;;;;2.83;1.50;;;;;;;31.40;33.04;99282.78;4884991;29;20021;-85
2022/08/08 02:11:38;;;;;;;3.20;1.58;;;;;;;31.39;33.02;99286.50;4884646;29;20048;-86
2022/08/08 02:14:41;;;;;;;2.50;1.45;;;;;;;31.39;33.00;99289.19;4885506;29;20123;-86
2022/08/08 02:17:29;;;;;;;2.83;1.55;;;;;;;31.37;32.77;99289.34;4887972;29;20079;-86
2022/08/08 02:20:00;;;;;;;2.08;1.40;;;;;;;31.36;32.77;99281.47;4887222;29;20029;-86
2022/08/08 02:22:52;;;;;;;2.70;1.63;;;;;;;31.33;32.50;99283.47;4886902;29;20032;-84
2022/08/08 02:25:34;;;;;;;2.03;1.50;;;;;;;31.34;33.06;99285.13;4884219;29;20470;-85
2022/08/08 02:28:46;;;;;;;2.72;1.65;;;;;;;31.32;32.73;99287.16;4884175;29;20032;-86
2022/08/08 02:31:55;;;;;;;2.65;1.52;;;;;;;31.30;32.80;99283.81;4843337;29;20090;-84
2022/08/08 02:34:54;;;;;;;2.60;1.70;;;;;;;31.29;32.98;99287.50;4900570;29;20041;-85
2022/08/08 02:37:56;;;;;;;2.40;1.50;;;;;;;31.28;32.88;99285.81;4884213;29;20028;-84
2022/08/08 02:40:47;;;;;;;2.20;1.42;;;;;;;31.28;32.83;99285.81;4884191;29;20471;-85
2022/08/08 02:43:54;;;;;;;2.97;1.80;;;;;;;31.25;32.77;99283.44;4884313;29;20028;-85
2022/08/08 02:46:46;;;;;;;3.30;1.70;;;;;;;31.25;32.82;99296.91;4866371;29;20055;-86
2022/08/08 02:49:15;;;;;;;2.20;1.60;;;;;;;31.25;32.69;99301.44;4883819;29;20037;-84
2022/08/08 02:51:57;;;;;;;2.10;1.50;;;;;;;31.23;32.60;99298.06;4883945;29;20024;-85
2022/08/08 02:54:55;;;;;;;2.72;1.58;;;;;;;31.23;32.95;99300.78;4887193;29;20131;-86
2022/08/08 02:58:06;;;;;;;3.38;1.75;;;;;;;31.21;32.93;99300.94;4885569;29;20029;-86
2022/08/08 03:00:56;;;;;;;2.22;1.40;;;;;;;31.18;32.66;99296.72;4883900;29;20036;-85
2022/08/08 03:03:49;;;;;;;2.45;1.70;;;;;;;31.18;33.01;99295.88;4901715;29;20032;-86
2022/08/08 03:06:49;;;;;;;2.33;1.65;;;;;;;31.17;32.60;99294.16;4883980;29;20043;-86
2022/08/08 03:10:13;;;;;;;3.92;1.80;;;;;;;31.17;32.95;99299.56;4887082;29;20125;-85
2022/08/08 03:12:45;;;;;;;2.38;1.50;;;;;;;31.15;32.58;99306.97;4862572;29;20044;-86
2022/08/08 03:15:29;;;;;;;2.47;1.63;;;;;;;31.13;32.62;99300.91;4902642;29;20374;-86
2022/08/08 03:18:17;;;;;;;2.72;1.63;;;;;;;31.11;32.51;99290.31;4900762;29;20036;-84
2022/08/08 03:20:43;;;;;;;2.05;1.45;;;;;;;31.11;32.89;99289.44;4883322;29;20374;-84
2022/08/08 03:23:09;;;;;;;1.95;1.35;;;;;;;31.09;32.61;99300.41;4899877;29;20092;-85
2022/08/08 03:25:36;;;;;;;2.53;1.60;;;;;;;31.08;32.57;99302.25;4883607;29;20032;-86
2022/08/08 03:28:06;;;;;;;3.20;1.60;;;;;;;31.08;33.06;99309.47;4900263;29;20105;-85
2022/08/08 03:30:32;;;;;;;3.00;1.58;;;;;;;31.07;32.86;99311.34;4885596;29;20056;-86
2022/08/08 03:33:17;;;;;;;2.50;1.60;;;;;;;31.04;33.05;99311.66;4888493;29;20063;-84
2022/08/08 03:35:44;;;;;;;3.45;1.55;;;;;;;31.05;33.10;99312.50;4890156;29;20035;-86
2022/08/08 03:38:10;;;;;;;2.10;1.42;;;;;;;31.04;32.89;99316.22;4902428;29;20060;-84
2022/08/08 03:40:36;;;;;;;2.38;1.50;;;;;;;31.03;32.77;99311.84;4885158;29;20043;-85
2022/08/08 03:43:02;;;;;;;2.50;1.60;;;;;;;31.01;32.95;99316.53;4885148;29;20033;-84
2022/08/08 03:45:29;;;;;;;1.80;1.30;;;;;;;30.97;33.15;99310.63;4884227;29;20028;-84
2022/08/08 03:48:03;;;;;;;2.58;1.65;;;;;;;30.97;33.03;99318.72;4883435;29;20048;-86
2022/08/08 03:50:30;;;;;;;2.72;1.60;;;;;;;30.96;32.65;99314.34;4883121;29;20037;-84
2022/08/08 03:53:00;;;;;;;2.63;1.52;;;;;;;30.94;32.77;99314.50;4883449;29;20039;-85
2022/08/08 03:55:32;;;;;;;2.53;1.52;;;;;;;30.92;32.42;99324.59;4883350;29;20064;-84
2022/08/08 03:57:58;;;;;;;2.95;1.60;;;;;;;30.92;32.94;99323.75;4886524;29;20032;-85
2022/08/08 04:00:26;;;;;;;2.20;1.52;;;;;;;30.92;32.86;99329.13;4887191;29;20127;-84
2022/08/08 04:03:00;;;;;;;3.05;1.60;;;;;;;30.89;33.14;99319.53;4887355;29;20111;-87
2022/08/08 04:05:30;;;;;;;2.35;1.52;;;;;;;30.91;32.83;99327.44;4890296;29;20115;-87
2022/08/08 04:07:58;;;;;;;2.75;1.63;;;;;;;30.89;33.18;99329.47;4886785;29;20119;-87
2022/08/08 04:10:25;;;;;;;2.22;1.55;;;;;;;30.89;33.24;99324.09;4903775;29;20112;-84
2022/08/08 04:12:51;;;;;;;1.60;1.35;;;;;;;30.89;33.16;99329.47;4886944;29;20037;-86
2022/08/08 04:15:17;;;;;;;3.05;1.65;;;;;;;30.87;33.07;99331.47;4886870;29;20028;-84
2022/08/08 04:17:42;;;;;;;2.60;1.73;;;;;;;30.86;32.77;99325.25;4886795;29;20371;-86
2022/08/08 04:20:09;;;;;;;2.38;1.40;;;;;;;30.85;32.88;99333.50;4886886;29;20046;-85
2022/08/08 04:22:34;;;;;;;2.33;1.63;;;;;;;30.84;33.26;99331.81;4888106;29;20120;-84
2022/08/08 04:25:00;;;;;;;2.47;1.50;;;;;;;30.81;33.19;99335.66;4887825;29;20032;-86
2022/08/08 04:27:26;;;;;;;3.53;1.92;;;;;;;30.80;32.88;99333.97;4888566;29;20060;-87
2022/08/08 04:29:51;;;;;;;3.08;1.70;;;;;;;30.80;33.14;99339.38;4889783;29;20441;-85
2022/08/08 04:32:17;;;;;;;3.65;1.70;;;;;;;30.78;33.35;99339.53;4889112;29;20119;-87
2022/08/08 04:34:43;;;;;;;2.67;1.75;;;;;;;30.77;33.10;99343.22;4889510;29;20040;-84
2022/08/08 04:37:10;;;;;;;3.33;1.90;;;;;;;30.78;33.43;99338.66;4886747;29;20028;-86
2022/08/08 04:39:35;;;;;;;2.60;1.75;;;;;;;30.75;33.27;99334.44;4886728;29;20032;-84
2022/08/08 04:42:01;;;;;;;3.53;1.63;;;;;;;30.74;33.18;99350.78;4903483;29;20071;-84
2022/08/08 04:44:27;;;;;;;2.78;2.10;;;;;;;30.74;33.35;99354.31;4903283;29;20036;-87
2022/08/08 04:46:52;;;;;;;2.47;1.67;;;;;;;30.74;33.11;99353.47;4889912;29;20119;-84
2022/08/08 04:49:18;;;;;;;2.90;2.00;;;;;;;30.71;33.32;99359.19;4891772;29;20127;-84
2022/08/08 04:51:44;;;;;;;3.00;1.73;;;;;;;30.70;33.24;99361.03;4893161;29;20040;-84
2022/08/08 04:54:09;;;;;;;2.55;1.75;;;;;;;30.69;33.08;99372.78;4903558;29;20043;-85
2022/08/08 04:56:35;;;;;;;2.55;1.80;;;;;;;30.68;33.50;99371.97;4886608;29;20065;-84
2022/08/08 04:59:01;;;;;;;3.55;1.80;;;;;;;30.67;33.23;99369.41;4886310;29;20123;-84
2022/08/08 05:01:26;;;;;;;2.42;1.90;;;;;;;30.68;33.30;99371.06;4886186;29;20032;-85
2022/08/08 05:03:52;;;;;;;3.25;1.70;;;;;;;30.66;33.43;99373.94;4886303;29;20032;-84
2022/08/08 05:06:18;;;;;;;2.60;1.63;;;;;;;30.65;33.25;99382.19;4903007;29;20036;-87
2022/08/08 05:08:45;;;;;;;3.00;1.83;;;;;;;30.67;33.07;99386.41;4886235;29;20040;-84
2022/08/08 05:11:13;;;;;;;3.83;1.90;;;;;;;30.63;33.51;99379.66;4886256;29;20056;-86
2022/08/08 05:13:42;;;;;;;3.85;1.73;;;;;;;30.62;33.42;99387.88;4886106;29;20037;-85
2022/08/08 05:16:10;;;;;;;2.45;1.63;;;;;;;30.61;33.29;99380.81;4887204;29;20470;-86
2022/08/08 05:18:36;;;;;;;2.95;1.95;;;;;;;30.61;33.28;99386.19;4887824;29;20059;-85
2022/08/08 05:21:03;;;;;;;3.17;1.85;;;;;;;30.62;33.49;99393.25;4903119;29;20443;-85
2022/08/08 05:23:29;;;;;;;2.75;1.92;;;;;;;30.61;33.31;99396.97;4885951;29;20032;-87
2022/08/08 05:25:56;;;;;;;3.13;2.15;;;;;;;30.59;33.40;99401.69;4885921;29;20032;-84
2022/08/08 05:28:21;;;;;;;3.88;1.90;;;;;;;30.60;33.20;99400.66;4885809;29;20123;-85
2022/08/08 05:30:47;;;;;;;4.53;2.00;;;;;;;30.59;33.73;99401.69;4885778;29;20123;-83
2022/08/08 05:33:14;;;;;;;2.47;1.80;;;;;;;30.58;33.53;99405.34;4885276;29;20060;-85
2022/08/08 05:35:42;;;;;;;3.92;2.25;;;;;;;30.57;33.30;99411.75;4885623;29;20040;-84
2022/08/08 05:38:13;;;;;;;3.13;1.88;;;;;;;30.58;33.15;99410.72;4902306;29;20137;-84
2022/08/08 05:40:47;;;;;;;3.00;1.90;;;;;;;30.56;33.47;99405.53;4886941;29;20036;-84
2022/08/08 05:43:26;;;;;;;2.97;1.95;;;;;;;30.55;33.52;99410.06;4904804;29;20033;-84
2022/08/08 05:46:00;;;;;;;3.03;2.00;;;;;;;30.55;33.47;99407.34;4885342;29;20032;-84
2022/08/08 05:48:26;;;;;;;3.05;1.90;;;;;;;30.57;34.00;99417.13;4885300;29;20379;-83
2022/08/08 05:50:52;;;;;;;2.55;1.85;;;;;;;30.55;33.31;99415.44;4888191;29;20020;-86
2022/08/08 05:53:26;;;;;;;2.97;2.00;;;;;;;30.56;33.57;99421.69;4885492;29;20033;-86
2022/08/08 05:55:54;;;;;;;3.15;1.70;;;;;;;30.57;33.77;99425.19;4885514;29;20025;-86
2022/08/08 05:58:29;;;;;;;3.08;2.03;;;;;;;30.55;33.75;99430.72;4885146;29;20036;-86
2022/08/08 06:00:56;;;;;;;3.67;2.05;;;;;;;30.54;33.51;99427.22;4887149;29;20060;-85
2022/08/08 06:03:27;;;;;;;4.15;2.30;;;;;;;30.55;33.41;99428.91;4890024;29;20033;-85
2022/08/08 06:05:55;;;;;;;3.42;2.03;;;;;;;30.54;33.52;99427.22;4890977;29;20112;-84
2022/08/08 06:08:30;;;;;;;2.95;2.13;;;;;;;30.55;33.48;99428.03;4887409;29;20039;-83
2022/08/08 06:10:58;;;;;;;4.65;2.00;;;;;;;30.57;33.73;99430.59;4885486;29;20555;-84
2022/08/08 06:13:25;;;;;;;3.72;2.10;;;;;;;30.57;33.60;99428.75;4885483;29;20359;-86
2022/08/08 06:15:53;;;;;;;3.00;1.95;;;;;;;30.57;33.63;99431.44;4884787;29;20065;-85
2022/08/08 06:18:20;;;;;;;2.53;1.83;;;;;;;30.58;33.54;99424.19;4884534;29;20485;-85
2022/08/08 06:20:46;;;;;;;3.08;1.63;;;;;;;30.55;33.45;99426.22;4884253;29;20092;-84
2022/08/08 06:23:12;;;;;;;4.28;2.00;;;;;;;30.57;33.70;99425.19;4885107;29;20040;-86
2022/08/08 06:25:41;;;;;;;4.18;1.90;;;;;;;30.55;33.56;99436.97;4885008;29;20076;-86
2022/08/08 06:28:13;;;;;;;3.55;2.10;;;;;;;30.57;33.65;99438.66;4884697;29;20032;-84
2022/08/08 06:30:42;;;;;;;3.03;1.60;;;;;;;30.56;33.81;99437.84;4884515;29;20024;-85
2022/08/08 06:33:11;;;;;;;2.50;1.60;;;;;;;30.54;33.58;99440.69;4900566;29;20057;-84
2022/08/08 06:35:45;;;;;;;3.50;2.20;;;;;;;30.58;33.63;99440.34;4884512;29;20112;-86
2022/08/08 06:38:17;;;;;;;3.28;2.00;;;;;;;30.57;33.70;99446.75;4884392;29;20047;-84
2022/08/08 06:40:43;;;;;;;4.20;1.88;;;;;;;30.57;33.59;99441.34;4901847;29;20064;-87
2022/08/08 06:43:12;;;;;;;3.22;1.90;;;;;;;30.57;33.87;99447.59;4887607;29;20366;-87
2022/08/08 06:45:38;;;;;;;3.10;1.63;;;;;;;30.57;33.76;99444.03;4887478;29;20037;-86
2022/08/08 06:48:04;;;;;;;3.55;1.60;;;;;;;30.57;33.85;99444.03;4887873;29;20036;-84
2022/08/08 06:50:31;;;;;;;3.13;1.60;;;;;;;30.59;33.97;99450.13;4887697;29;20032;-85
2022/08/08 06:53:05;;;;;;;4.57;1.95;;;;;;;30.59;33.76;99450.13;4901175;29;20033;-85
2022/08/08 06:55:30;;;;;;;3.72;2.03;;;;;;;30.59;33.73;99447.44;4884384;29;20096;-85
2022/08/08 06:57:56;;;;;;;4.32;2.00;;;;;;;30.60;33.93;99457.22;4884166;29;20036;-84
2022/08/08 07:00:22;;;;;;;2.83;1.73;;;;;;;30.59;33.94;99450.13;4884213;29;20040;-83
2022/08/08 07:02:52;;;;;;;2.55;1.75;;;;;;;30.61;34.18;99450.81;4885405;29;20439;-85
2022/08/08 07:05:23;;;;;;;4.68;2.00;;;;;;;30.61;33.76;99458.91;4884477;29;20032;-85
2022/08/08 07:07:52;;;;;;;3.17;1.83;;;;;;;30.62;34.26;99457.88;4885699;29;20471;-86
2022/08/08 07:10:20;;;;;;;4.20;1.80;;;;;;;30.67;34.16;99460.94;4885603;29;20055;-86
2022/08/08 07:12:57;;;;;;;3.25;1.80;;;;;;;30.67;33.95;99461.81;4885274;29;20514;-86
2022/08/08 07:15:51;;;;;;;4.40;2.15;;;;;;;30.67;34.22;99458.25;4886432;29;20036;-84
2022/08/08 07:18:42;;;;;;;2.85;1.88;;;;;;;30.66;34.16;99460.09;4884398;29;20076;-87
2022/08/08 07:21:13;;;;;;;3.00;1.70;;;;;;;30.68;34.11;99465.31;4887703;29;20075;-85
2022/08/08 07:24:06;;;;;;;4.80;2.28;;;;;;;30.67;34.35;99461.81;4900820;29;20514;-86
2022/08/08 07:26:33;;;;;;;3.38;1.70;;;;;;;30.70;33.82;99471.47;4880589;29;20478;-84
2022/08/08 07:29:01;;;;;;;3.03;1.80;;;;;;;30.69;34.22;99458.97;4884401;29;20029;-86
2022/08/08 07:31:27;;;;;;;4.13;1.92;;;;;;;30.68;34.01;99468.03;4882716;29;20451;-85
2022/08/08 07:33:55;;;;;;;3.55;2.10;;;;;;;30.70;34.42;99466.06;4883644;29;20033;-85
2022/08/08 07:36:22;;;;;;;3.22;2.05;;;;;;;30.72;34.04;99469.44;4903323;29;20370;-87
2022/08/08 07:38:50;;;;;;;3.25;1.60;;;;;;;30.73;34.18;99468.44;4883880;29;20032;-86
2022/08/08 07:41:21;;;;;;;3.67;1.85;;;;;;;30.74;33.99;99471.97;4883707;29;20099;-85
2022/08/08 07:43:48;;;;;;;2.97;1.85;;;;;;;30.75;33.92;99474.50;4883625;29;20032;-86
2022/08/08 07:46:14;;;;;;;4.22;1.83;;;;;;;30.77;33.93;99471.66;4885062;29;20176;-85
2022/08/08 07:48:40;;;;;;;3.30;1.70;;;;;;;30.77;33.98;99477.03;4901257;29;20047;-86
2022/08/08 07:51:08;;;;;;;3.17;1.70;;;;;;;30.76;34.14;99475.34;4885829;29;20451;-85
2022/08/08 07:53:54;;;;;;;4.60;2.03;;;;;;;30.78;34.07;99476.88;4884322;29;20100;-87
2022/08/08 07:56:25;;;;;;;2.75;1.70;;;;;;;30.79;33.88;99481.25;4884257;29;20047;-86
2022/08/08 07:58:51;;;;;;;4.30;1.70;;;;;;;30.79;34.09;99475.88;4884474;29;20037;-85
2022/08/08 08:01:25;;;;;;;3.22;1.90;;;;;;;30.81;34.11;99479.25;4883772;29;20386;-85
2022/08/08 08:03:54;;;;;;;4.57;2.05;;;;;;;30.83;33.83;99480.97;4886515;29;20035;-84
2022/08/08 08:06:21;;;;;;;4.78;1.98;;;;;;;30.85;33.81;99478.94;4883993;29;20037;-87
2022/08/08 08:09:02;;;;;;;6.78;2.05;;;;;;;30.87;33.78;99474.22;4883944;29;20426;-85
2022/08/08 08:11:32;;;;;;;7.15;2.15;;;;;;;30.86;33.88;99478.78;4883645;29;20055;-84
2022/08/08 08:14:07;;;;;;;8.35;2.00;;;;;;;30.87;33.93;99477.78;4883402;29;20407;-86
2022/08/08 08:16:40;;;;;;;6.57;2.20;;;;;;;30.89;33.73;99474.94;4883284;29;20115;-85
2022/08/08 08:19:10;;;;;;;9.13;2.50;;;;;;;30.89;33.53;99470.38;4899761;29;20036;-84
2022/08/08 08:21:39;;;;;;;6.18;2.05;;;;;;;30.90;33.57;99476.63;4883481;29;20493;-85
2022/08/08 08:24:05;;;;;;;7.97;2.25;;;;;;;30.91;33.45;99467.53;4883442;29;20033;-85
2022/08/08 08:26:31;;;;;;;5.95;2.08;;;;;;;30.91;33.69;99467.53;4900040;29;20048;-85
2022/08/08 08:28:57;;;;;;;7.50;1.92;;;;;;;30.91;32.99;99473.78;4885445;29;20041;-86
2022/08/08 08:31:23;;;;;;;5.47;1.73;;;;;;;30.92;33.32;99463.81;4887607;29;20455;-84
2022/08/08 08:33:49;;;;;;;6.32;2.13;;;;;;;30.94;32.99;99469.91;4889952;29;20024;-84
2022/08/08 08:36:15;;;;;;;4.38;1.73;;;;;;;30.94;33.05;99473.44;4885687;29;20037;-84
2022/08/08 08:38:41;;;;;;;6.18;1.75;;;;;;;30.94;33.06;99470.75;4883632;29;20029;-85
2022/08/08 08:41:07;;;;;;;6.85;1.90;;;;;;;30.96;32.94;99475.97;4883247;29;20047;-84
2022/08/08 08:43:34;;;;;;;4.13;1.70;;;;;;;30.98;32.90;99468.56;4885157;29;20033;-86
2022/08/08 08:46:00;;;;;;;6.20;1.83;;;;;;;30.99;32.89;99464.88;4886515;29;20029;-85
2022/08/08 08:48:28;;;;;;;4.28;1.75;;;;;;;31.01;32.77;99473.66;4886659;29;20043;-85
2022/08/08 08:50:54;;;;;;;4.10;1.67;;;;;;;31.02;32.71;99475.34;4886595;29;20443;-85
2022/08/08 08:53:21;;;;;;;2.70;1.42;;;;;;;31.03;32.67;99476.19;4886562;29;20032;-85
2022/08/08 08:55:48;;;;;;;3.38;1.50;;;;;;;31.04;33.03;99464.41;4887145;29;20450;-87
2022/08/08 08:58:42;;;;;;;4.43;1.65;;;;;;;31.06;32.84;99465.09;4905752;29;20115;-88
2022/08/08 09:01:12;;;;;;;3.47;1.63;;;;;;;31.07;32.63;99467.63;4885831;29;20344;-88
2022/08/08 09:03:48;;;;;;;3.97;1.75;;;;;;;31.08;32.88;99463.91;4888522;29;20039;-86
2022/08/08 09:06:19;;;;;;;3.50;1.48;;;;;;;31.12;32.63;99460.91;4887854;29;20039;-86
2022/08/08 09:08:49;;;;;;;3.72;1.90;;;;;;;31.12;32.59;99460.91;4885513;29;20385;-84
2022/08/08 09:11:24;;;;;;;4.43;1.50;;;;;;;31.14;32.62;99461.59;4885621;29;20069;-85
2022/08/08 09:14:12;;;;;;;2.38;1.50;;;;;;;31.16;32.41;99467.66;4885550;29;20351;-84
2022/08/08 09:16:38;;;;;;;4.03;1.83;;;;;;;31.18;32.45;99462.97;4902584;29;20032;-87
2022/08/08 09:19:04;;;;;;;3.92;1.40;;;;;;;31.21;32.64;99459.94;4892929;29;20064;-87
2022/08/08 09:21:30;;;;;;;5.10;1.80;;;;;;;31.21;32.51;99459.94;4893797;29;20029;-87
2022/08/08 11:55:42;;;;;;;8.52;3.30;;;;;;;32.24;32.08;99384.34;5765848;23;20098;-89
2022/08/08 11:58:11;;;;;;;8.75;2.95;;;;;;;32.27;32.34;99370.50;4919096;29;20057;-91
2022/08/08 12:00:57;;;;;;;7.47;2.83;;;;;;;32.28;32.12;99362.22;4923199;29;20028;-90
2022/08/08 12:03:40;;;;;;;6.50;2.67;;;;;;;32.30;32.06;99367.47;4908539;29;20039;-88
2022/08/08 12:06:18;;;;;;;9.93;3.15;;;;;;;32.32;32.07;99362.72;4910503;29;20109;-90
2022/08/08 12:08:47;;;;;;;9.10;3.17;;;;;;;32.33;32.21;99360.88;4911685;29;20108;-89
2022/08/08 12:11:19;;;;;;;11.02;3.10;;;;;;;32.36;32.60;99364.06;4905490;29;20096;-88
2022/08/08 12:13:49;;;;;;;6.45;2.50;;;;;;;32.37;32.39;99364.91;4903426;29;20038;-89
2022/08/08 12:16:17;;;;;;;9.68;2.97;;;;;;;32.37;32.72;99360.34;4902445;29;20032;-89
2022/08/08 12:19:14;;;;;;;7.68;2.65;;;;;;;32.39;33.19;99357.50;4921152;29;20035;-88
2022/08/08 12:21:40;;;;;;;;;;;;;;;32.41;32.81;99356.34;4922839;29;20107;-87
2022/08/08 12:24:16;;;;;;;7.23;2.77;;;;;;;32.43;32.10;99355.31;4906078;29;20016;-87
2022/08/08 12:26:52;;;;;;;7.50;2.20;;;;;;;32.45;32.46;99361.38;4889957;29;20042;-85
2022/08/08 12:29:41;;;;;;;5.32;2.35;;;;;;;32.47;32.58;99354.78;4909934;29;20027;-86
2022/08/08 12:32:13;;;;;;;9.07;3.17;;;;;;;32.49;32.23;99357.31;4912042;29;20024;-88
2022/08/08 12:35:08;;;;;;;6.30;2.33;;;;;;;32.50;32.47;99356.31;4924246;29;20024;-85
2022/08/08 12:37:34;;;;;;;8.15;2.53;;;;;;;32.50;32.44;99354.47;4885727;29;20051;-85
2022/08/08 12:40:37;;;;;;;4.70;2.42;;;;;;;32.52;32.74;99352.41;4921008;29;20028;-85
2022/08/08 12:43:04;;;;;;;7.03;2.47;;;;;;;32.54;32.32;99344.97;4920833;29;20076;-87
2022/08/08 12:45:44;;;;;;;8.18;2.55;;;;;;;32.57;32.45;99348.38;4904962;29;20111;-87
2022/08/08 12:48:18;;;;;;;6.05;2.58;;;;;;;32.58;32.50;99342.75;4920934;29;20031;-86
2022/08/08 12:50:48;;;;;;;5.47;2.42;;;;;;;32.59;32.21;99347.19;4905242;29;20409;-86
2022/08/08 12:53:30;;;;;;;6.45;2.85;;;;;;;32.62;32.40;99341.41;4905211;29;20040;-87
2022/08/08 12:56:05;;;;;;;6.70;2.53;;;;;;;32.64;32.46;99350.16;4905110;29;20054;-87
2022/08/08 12:58:51;;;;;;;8.30;2.63;;;;;;;32.66;32.53;99337.34;4920960;29;20028;-87
2022/08/08 13:01:17;;;;;;;5.65;2.50;;;;;;;32.68;32.06;99335.31;4921972;29;20035;-87
2022/08/08 13:03:52;;;;;;;7.38;2.33;;;;;;;32.72;32.51;99337.69;4906410;29;20031;-86
2022/08/08 13:06:21;;;;;;;7.82;2.80;;;;;;;32.73;32.28;99337.47;4906996;29;20059;-86
2022/08/08 13:08:51;;;;;;;6.43;2.45;;;;;;;32.75;32.44;99334.59;4922255;29;20335;-89
2022/08/08 13:11:37;;;;;;;7.55;2.65;;;;;;;32.78;32.41;99339.69;4921584;29;20020;-86
2022/08/08 13:14:15;;;;;;;5.47;2.40;;;;;;;32.78;32.34;99337.81;4922727;29;20181;-87
2022/08/08 13:16:41;;;;;;;4.60;2.20;;;;;;;32.80;32.54;99326.81;4922517;29;20024;-87
2022/08/08 13:19:08;;;;;;;5.72;2.22;;;;;;;32.83;32.35;99334.59;4905923;29;20042;-87
2022/08/08 13:21:45;;;;;;;5.78;2.17;;;;;;;32.85;32.59;99345.19;4921443;29;20028;-87
2022/08/08 13:24:12;;;;;;;6.35;2.65;;;;;;;32.86;32.32;99339.63;4922690;29;20032;-87
2022/08/08 13:26:38;;;;;;;5.95;2.28;;;;;;;32.88;32.52;99334.88;4921733;29;20028;-87
2022/08/08 13:29:10;;;;;;;4.47;2.03;;;;;;;32.90;32.36;99335.56;4908141;29;20024;-87
2022/08/08 13:31:45;;;;;;;6.90;2.38;;;;;;;32.91;32.34;99326.44;4924059;29;20024;-87
2022/08/08 13:34:21;;;;;;;7.95;2.65;;;;;;;32.93;32.49;99337.09;4905458;29;20035;-87
2022/08/08 13:36:48;;;;;;;6.78;2.55;;;;;;;32.95;32.57;99333.19;4904849;29;20025;-87
2022/08/08 13:39:15;;;;;;;4.63;2.40;;;;;;;32.97;32.41;99327.59;4921362;29;20028;-87
2022/08/08 13:41:41;;;;;;;6.85;2.47;;;;;;;32.98;32.40;99318.50;4904486;29;20111;-86
2022/08/08 13:44:07;;;;;;;4.03;2.20;;;;;;;33.01;32.33;99314.63;4904612;29;20028;-87
2022/08/08 13:47:02;;;;;;;4.72;2.15;;;;;;;33.02;32.50;99319.00;4920306;29;20586;-86
2022/08/08 13:49:29;;;;;;;7.32;2.35;;;;;;;33.04;32.11;99311.53;4904306;29;20036;-87
2022/08/08 13:51:56;;;;;;;5.05;2.35;;;;;;;33.04;32.35;99312.41;4920153;29;20063;-86
2022/08/08 13:54:23;;;;;;;4.88;2.28;;;;;;;33.05;32.22;99308.66;4905118;29;20032;-86
2022/08/08 18:21:47;;;;;;;3.42;1.58;;;;;;;33.64;31.58;99273.97;5220017;23;20048;-88
2022/08/08 18:24:15;;;;;;;2.78;1.52;;;;;;;33.63;31.56;99280.41;4890718;29;20079;-90
2022/08/08 18:26:41;;;;;;;3.55;1.40;;;;;;;33.62;31.26;99278.72;4889001;29;20033;-87
2022/08/08 18:29:07;;;;;;;2.50;1.70;;;;;;;33.63;31.81;99285.00;4901653;29;20025;-89
2022/08/08 18:31:35;;;;;;;4.15;1.63;;;;;;;33.63;31.69;99288.53;4884719;29;20024;-88
2022/08/08 18:34:04;;;;;;;2.00;1.40;;;;;;;33.63;31.38;99285.81;4884489;29;20048;-90
2022/08/08 18:36:31;;;;;;;5.28;1.80;;;;;;;33.64;31.45;99290.19;4885282;29;20087;-88
2022/08/08 18:38:57;;;;;;;5.28;1.90;;;;;;;33.62;31.51;99286.84;4884622;29;20095;-87
2022/08/08 18:41:27;;;;;;;4.45;1.95;;;;;;;33.62;31.60;99300.38;4884240;29;20021;-90
2022/08/08 18:43:52;;;;;;;5.75;1.80;;;;;;;33.62;31.55;99303.06;4884325;29;20490;-89
2022/08/08 18:46:20;;;;;;;4.68;1.60;;;;;;;33.62;31.55;99303.06;4886253;29;20068;-90
2022/08/08 18:48:49;;;;;;;9.20;2.10;;;;;;;33.62;31.25;99313.91;4894723;29;20024;-89
2022/08/08 18:51:14;;;;;;;10.73;3.10;;;;;;;33.61;31.60;99306.81;4892721;29;20031;-89
2022/08/08 18:53:40;;;;;;;12.57;2.97;;;;;;;33.63;31.54;99317.47;4891896;29;20032;-90
2022/08/08 18:56:06;;;;;;;12.30;2.85;;;;;;;33.60;31.82;99311.38;4887372;29;20065;-89
2022/08/08 18:58:32;;;;;;;13.23;2.75;;;;;;;33.60;31.67;99311.38;4886270;29;20042;-89
2022/08/08 19:00:59;;;;;;;9.40;2.30;;;;;;;33.61;31.42;99313.03;4885982;29;20024;-88
2022/08/08 19:03:32;;;;;;;11.18;2.72;;;;;;;33.60;31.70;99315.97;4887638;29;20489;-90
2022/08/08 19:05:58;;;;;;;12.20;3.10;;;;;;;33.59;31.69;99314.25;4876100;29;20040;-90
2022/08/08 19:08:26;;;;;;;5.70;2.15;;;;;;;33.59;31.31;99314.25;4893307;29;20068;-89